JST534 YMML-YSSY
Flight info
| Callsign | JST534 |
|---|---|
| Flight time | 1h 7m |
| Altitude | 35000 |
| Route | DCT ML H129 DOSEL Y59 RIVET RIVET4 |
| Aircraft | A321/M-SDE3FGHIRWY/LB1 |
Departure
| Time | 2026-04-30 11:06 |
|---|---|
| Airport | Melbourne Airport (YMML) |
Arrival
| Time | 2026-04-30 12:13 |
|---|---|
| Airport | Sydney Kingsford Smith International Airport (YSSY) |
| Time | Latitude | Longitude | Altitude | Speed | Heading |
|---|---|---|---|---|---|
| 2026-04-30 10:38 | -37.67621 | 144.84845 | 377 ft | 0 kts | 351° |
| 2026-04-30 10:54 | -37.67632 | 144.84847 | 376 ft | 3 kts | 352° |
| 2026-04-30 10:55 | -37.67652 | 144.84850 | 375 ft | 3 kts | 354° |
| 2026-04-30 10:55 | -37.67672 | 144.84852 | 375 ft | 3 kts | 359° |
| 2026-04-30 10:55 | -37.67692 | 144.84852 | 374 ft | 3 kts | 8° |
| 2026-04-30 10:55 | -37.67711 | 144.84846 | 373 ft | 3 kts | 35° |
| 2026-04-30 10:56 | -37.67721 | 144.84833 | 373 ft | 2 kts | 81° |
| 2026-04-30 10:56 | -37.67723 | 144.84812 | 373 ft | 3 kts | 81° |
| 2026-04-30 10:56 | -37.67727 | 144.84787 | 372 ft | 3 kts | 81° |
| 2026-04-30 10:56 | -37.67730 | 144.84762 | 372 ft | 3 kts | 81° |
| 2026-04-30 10:57 | -37.67733 | 144.84737 | 372 ft | 3 kts | 81° |
| 2026-04-30 10:57 | -37.67736 | 144.84711 | 371 ft | 3 kts | 82° |
| 2026-04-30 10:57 | -37.67739 | 144.84686 | 371 ft | 3 kts | 82° |
| 2026-04-30 10:57 | -37.67741 | 144.84670 | 371 ft | 1 kts | 82° |
| 2026-04-30 10:58 | -37.67744 | 144.84648 | 370 ft | 3 kts | 69° |
| 2026-04-30 10:58 | -37.67753 | 144.84626 | 370 ft | 3 kts | 49° |
| 2026-04-30 10:58 | -37.67768 | 144.84610 | 370 ft | 3 kts | 28° |
| 2026-04-30 10:58 | -37.67786 | 144.84600 | 368 ft | 3 kts | 8° |
| 2026-04-30 10:59 | -37.67805 | 144.84599 | 367 ft | 2 kts | 353° |
| 2026-04-30 10:59 | -37.67816 | 144.84601 | 366 ft | 3 kts | 351° |
| 2026-04-30 10:59 | -37.67836 | 144.84604 | 365 ft | 3 kts | 351° |
| 2026-04-30 10:59 | -37.67856 | 144.84608 | 366 ft | 3 kts | 351° |
| 2026-04-30 11:00 | -37.67876 | 144.84612 | 366 ft | 3 kts | 351° |
| 2026-04-30 11:00 | -37.67885 | 144.84613 | 364 ft | 0 kts | 351° |
| 2026-04-30 11:02 | -37.67845 | 144.84600 | 367 ft | 5 kts | 331° |
| 2026-04-30 11:03 | -37.67830 | 144.84579 | 367 ft | 5 kts | 304° |
| 2026-04-30 11:03 | -37.67823 | 144.84535 | 365 ft | 7 kts | 270° |
| 2026-04-30 11:03 | -37.67831 | 144.84458 | 365 ft | 10 kts | 261° |
| 2026-04-30 11:04 | -37.67858 | 144.84236 | 362 ft | 15 kts | 261° |
| 2026-04-30 11:04 | -37.67871 | 144.84125 | 365 ft | 12 kts | 262° |
| 2026-04-30 11:04 | -37.67884 | 144.84015 | 357 ft | 9 kts | 261° |
| 2026-04-30 11:04 | -37.67862 | 144.83967 | 360 ft | 7 kts | 342° |
| 2026-04-30 11:05 | -37.67765 | 144.83947 | 361 ft | 38 kts | 352° |
| 2026-04-30 11:05 | -37.67262 | 144.83854 | 377 ft | 105 kts | 352° |
| 2026-04-30 11:05 | -37.66342 | 144.83683 | 412 ft | 160 kts | 351° |
| 2026-04-30 11:05 | -37.65172 | 144.83454 | 912 ft | 169 kts | 353° |
| 2026-04-30 11:06 | -37.64022 | 144.83231 | 1696 ft | 163 kts | 353° |
| 2026-04-30 11:06 | -37.62910 | 144.83023 | 2250 ft | 168 kts | 353° |
| 2026-04-30 11:06 | -37.61678 | 144.82793 | 2476 ft | 189 kts | 353° |
| 2026-04-30 11:06 | -37.60332 | 144.82536 | 2780 ft | 204 kts | 353° |
| 2026-04-30 11:07 | -37.58839 | 144.82505 | 2967 ft | 229 kts | 14° |
| 2026-04-30 11:07 | -37.57361 | 144.83366 | 3488 ft | 240 kts | 24° |
| 2026-04-30 11:07 | -37.55838 | 144.84296 | 4132 ft | 246 kts | 22° |
| 2026-04-30 11:07 | -37.54297 | 144.85226 | 4933 ft | 245 kts | 22° |
| 2026-04-30 11:08 | -37.52739 | 144.86167 | 5556 ft | 252 kts | 22° |
| 2026-04-30 11:08 | -37.51145 | 144.87134 | 6238 ft | 255 kts | 22° |
| 2026-04-30 11:08 | -37.49543 | 144.88110 | 6932 ft | 258 kts | 22° |
| 2026-04-30 11:08 | -37.47912 | 144.89098 | 7540 ft | 262 kts | 21° |
| 2026-04-30 11:09 | -37.46260 | 144.90095 | 8141 ft | 266 kts | 21° |
| 2026-04-30 11:09 | -37.44582 | 144.91140 | 8736 ft | 272 kts | 26° |
| 2026-04-30 11:09 | -37.43093 | 144.92672 | 9340 ft | 283 kts | 44° |
| 2026-04-30 11:09 | -37.41927 | 144.94712 | 9967 ft | 290 kts | 51° |
| 2026-04-30 11:10 | -37.40765 | 144.96831 | 10392 ft | 300 kts | 51° |
| 2026-04-30 11:10 | -37.39545 | 144.99003 | 10806 ft | 309 kts | 51° |
| 2026-04-30 11:10 | -37.38267 | 145.01245 | 11073 ft | 323 kts | 51° |
| 2026-04-30 11:10 | -37.36916 | 145.03606 | 11208 ft | 342 kts | 51° |
| 2026-04-30 11:11 | -37.35512 | 145.06075 | 11565 ft | 351 kts | 51° |
| 2026-04-30 11:11 | -37.34086 | 145.08594 | 12092 ft | 355 kts | 52° |
| 2026-04-30 11:11 | -37.32650 | 145.11138 | 12626 ft | 359 kts | 52° |
| 2026-04-30 11:11 | -37.31203 | 145.13704 | 13191 ft | 362 kts | 52° |
| 2026-04-30 11:12 | -37.29738 | 145.16293 | 13744 ft | 365 kts | 52° |
| 2026-04-30 11:12 | -37.28257 | 145.18902 | 14285 ft | 368 kts | 52° |
| 2026-04-30 11:12 | -37.26768 | 145.21522 | 14773 ft | 371 kts | 52° |
| 2026-04-30 11:12 | -37.25265 | 145.24167 | 15283 ft | 373 kts | 52° |
| 2026-04-30 11:13 | -37.23753 | 145.26830 | 15774 ft | 376 kts | 51° |
| 2026-04-30 11:13 | -37.22229 | 145.29504 | 16301 ft | 377 kts | 51° |
| 2026-04-30 11:13 | -37.20698 | 145.32185 | 16798 ft | 380 kts | 51° |
| 2026-04-30 11:13 | -37.19153 | 145.34887 | 17293 ft | 382 kts | 51° |
| 2026-04-30 11:14 | -37.17602 | 145.37601 | 17779 ft | 384 kts | 51° |
| 2026-04-30 11:14 | -37.16039 | 145.40334 | 18263 ft | 387 kts | 51° |
| 2026-04-30 11:14 | -37.14485 | 145.43049 | 18709 ft | 389 kts | 51° |
| 2026-04-30 11:14 | -37.12902 | 145.45815 | 19084 ft | 392 kts | 51° |
| 2026-04-30 11:15 | -37.11286 | 145.48638 | 19484 ft | 395 kts | 51° |
| 2026-04-30 11:15 | -37.09703 | 145.51402 | 19866 ft | 397 kts | 51° |
| 2026-04-30 11:15 | -37.08086 | 145.54220 | 20234 ft | 399 kts | 51° |
| 2026-04-30 11:15 | -37.06460 | 145.57049 | 20616 ft | 401 kts | 51° |
| 2026-04-30 11:16 | -37.05210 | 145.59202 | 20817 ft | 385 kts | 50° |
| 2026-04-30 11:16 | -37.03645 | 145.61859 | 20930 ft | 374 kts | 50° |
| 2026-04-30 11:16 | -37.02118 | 145.64456 | 21012 ft | 366 kts | 50° |
| 2026-04-30 11:16 | -37.00632 | 145.66989 | 21004 ft | 354 kts | 50° |
| 2026-04-30 11:17 | -36.99202 | 145.69429 | 21007 ft | 342 kts | 50° |
| 2026-04-30 11:17 | -36.97775 | 145.71915 | 21013 ft | 360 kts | 51° |
| 2026-04-30 11:17 | -36.96317 | 145.74494 | 21115 ft | 374 kts | 51° |
| 2026-04-30 11:17 | -36.94769 | 145.77228 | 21245 ft | 386 kts | 51° |
| 2026-04-30 11:18 | -36.93188 | 145.80000 | 21373 ft | 398 kts | 51° |
| 2026-04-30 11:18 | -36.89899 | 145.85713 | 21877 ft | 409 kts | 51° |
| 2026-04-30 11:18 | -36.88224 | 145.88605 | 22216 ft | 412 kts | 50° |
| 2026-04-30 11:19 | -36.86560 | 145.91471 | 22574 ft | 414 kts | 50° |
| 2026-04-30 11:19 | -36.84862 | 145.94394 | 22932 ft | 417 kts | 50° |
| 2026-04-30 11:19 | -36.83129 | 145.97371 | 23303 ft | 419 kts | 50° |
| 2026-04-30 11:19 | -36.81413 | 146.00318 | 23667 ft | 421 kts | 50° |
| 2026-04-30 11:20 | -36.79685 | 146.03285 | 23996 ft | 424 kts | 50° |
| 2026-04-30 11:20 | -36.77949 | 146.06269 | 24291 ft | 426 kts | 50° |
| 2026-04-30 11:20 | -36.76207 | 146.09260 | 24631 ft | 426 kts | 50° |
| 2026-04-30 11:20 | -36.74461 | 146.12253 | 24969 ft | 427 kts | 50° |
| 2026-04-30 11:21 | -36.72705 | 146.15249 | 25276 ft | 429 kts | 50° |
| 2026-04-30 11:21 | -36.70941 | 146.18251 | 25575 ft | 430 kts | 50° |
| 2026-04-30 11:21 | -36.69167 | 146.21272 | 25873 ft | 432 kts | 50° |
| 2026-04-30 11:21 | -36.67388 | 146.24299 | 26156 ft | 434 kts | 50° |
| 2026-04-30 11:22 | -36.65603 | 146.27332 | 26436 ft | 436 kts | 50° |
| 2026-04-30 11:22 | -36.63806 | 146.30387 | 26720 ft | 438 kts | 50° |
| 2026-04-30 11:22 | -36.62005 | 146.33452 | 27006 ft | 439 kts | 50° |
| 2026-04-30 11:22 | -36.60201 | 146.36516 | 27319 ft | 439 kts | 50° |
| 2026-04-30 11:23 | -36.58391 | 146.39590 | 27611 ft | 441 kts | 50° |
| 2026-04-30 11:23 | -36.56576 | 146.42672 | 27871 ft | 443 kts | 50° |
| 2026-04-30 11:23 | -36.52917 | 146.48866 | 28409 ft | 446 kts | 50° |
| 2026-04-30 11:24 | -36.51076 | 146.51983 | 28672 ft | 448 kts | 50° |
| 2026-04-30 11:24 | -36.49229 | 146.55110 | 28923 ft | 450 kts | 50° |
| 2026-04-30 11:24 | -36.47373 | 146.58250 | 29181 ft | 451 kts | 50° |
| 2026-04-30 11:25 | -36.43638 | 146.64553 | 29665 ft | 455 kts | 50° |
| 2026-04-30 11:25 | -36.41755 | 146.67719 | 29897 ft | 456 kts | 50° |
| 2026-04-30 11:25 | -36.37966 | 146.74070 | 30344 ft | 459 kts | 50° |
| 2026-04-30 11:26 | -36.34154 | 146.80470 | 30699 ft | 462 kts | 50° |
| 2026-04-30 11:26 | -36.32246 | 146.83676 | 30908 ft | 462 kts | 50° |
| 2026-04-30 11:26 | -36.30336 | 146.86880 | 31162 ft | 461 kts | 50° |
| 2026-04-30 11:27 | -36.28437 | 146.90064 | 31426 ft | 459 kts | 50° |
| 2026-04-30 11:27 | -36.26561 | 146.93200 | 31664 ft | 458 kts | 50° |
| 2026-04-30 11:27 | -36.24636 | 146.96412 | 31907 ft | 458 kts | 50° |
| 2026-04-30 11:27 | -36.22760 | 146.99533 | 32124 ft | 458 kts | 50° |
| 2026-04-30 11:28 | -36.18955 | 147.05843 | 32572 ft | 457 kts | 50° |
| 2026-04-30 11:28 | -36.17057 | 147.08997 | 32783 ft | 457 kts | 50° |
| 2026-04-30 11:28 | -36.15162 | 147.12153 | 32991 ft | 456 kts | 50° |
| 2026-04-30 11:29 | -36.13271 | 147.15307 | 33185 ft | 456 kts | 50° |
| 2026-04-30 11:29 | -36.11377 | 147.18457 | 33407 ft | 456 kts | 50° |
| 2026-04-30 11:29 | -36.07580 | 147.24739 | 33832 ft | 456 kts | 50° |
| 2026-04-30 11:30 | -36.03782 | 147.31011 | 34252 ft | 455 kts | 50° |
| 2026-04-30 11:30 | -36.01888 | 147.34148 | 34445 ft | 455 kts | 50° |
| 2026-04-30 11:30 | -35.99994 | 147.37278 | 34621 ft | 455 kts | 50° |
| 2026-04-30 11:31 | -35.98099 | 147.40404 | 34810 ft | 455 kts | 50° |
| 2026-04-30 11:31 | -35.96204 | 147.43527 | 34990 ft | 454 kts | 50° |
| 2026-04-30 11:31 | -35.94309 | 147.46641 | 35162 ft | 454 kts | 50° |
| 2026-04-30 11:31 | -35.92412 | 147.49755 | 35346 ft | 453 kts | 50° |
| 2026-04-30 11:32 | -35.90516 | 147.52865 | 35421 ft | 453 kts | 50° |
| 2026-04-30 11:32 | -35.86733 | 147.59057 | 35428 ft | 452 kts | 50° |
| 2026-04-30 11:33 | -35.81060 | 147.68331 | 35436 ft | 452 kts | 50° |
| 2026-04-30 11:33 | -35.77268 | 147.74514 | 35440 ft | 452 kts | 50° |
| 2026-04-30 11:34 | -35.73476 | 147.80689 | 35441 ft | 452 kts | 50° |
| 2026-04-30 11:34 | -35.69681 | 147.86864 | 35455 ft | 453 kts | 50° |
| 2026-04-30 11:35 | -35.65880 | 147.93040 | 35468 ft | 453 kts | 50° |
| 2026-04-30 11:35 | -35.62098 | 147.99182 | 35464 ft | 454 kts | 51° |
| 2026-04-30 11:36 | -35.58284 | 148.05360 | 35475 ft | 454 kts | 50° |
| 2026-04-30 11:36 | -35.54457 | 148.11534 | 35478 ft | 454 kts | 50° |
| 2026-04-30 11:37 | -35.50642 | 148.17671 | 35459 ft | 442 kts | 50° |
| 2026-04-30 11:37 | -35.46964 | 148.23504 | 35462 ft | 424 kts | 50° |
| 2026-04-30 11:38 | -35.45190 | 148.26322 | 35466 ft | 409 kts | 50° |
| 2026-04-30 11:38 | -35.43488 | 148.29024 | 35466 ft | 392 kts | 50° |
| 2026-04-30 11:38 | -35.40168 | 148.34411 | 35470 ft | 400 kts | 51° |
| 2026-04-30 11:39 | -35.36777 | 148.39934 | 35472 ft | 410 kts | 51° |
| 2026-04-30 11:39 | -35.33279 | 148.45554 | 35461 ft | 420 kts | 51° |
| 2026-04-30 11:40 | -35.29675 | 148.51299 | 35473 ft | 430 kts | 51° |
| 2026-04-30 11:40 | -35.25980 | 148.57180 | 35468 ft | 441 kts | 51° |
| 2026-04-30 11:41 | -35.22190 | 148.63206 | 35472 ft | 452 kts | 51° |
| 2026-04-30 11:41 | -35.18336 | 148.69327 | 35464 ft | 455 kts | 51° |
| 2026-04-30 11:42 | -35.15127 | 148.74429 | 35464 ft | 456 kts | 51° |
| 2026-04-30 11:42 | -35.11252 | 148.80566 | 35468 ft | 456 kts | 51° |
| 2026-04-30 11:43 | -35.06716 | 148.87737 | 35466 ft | 457 kts | 51° |
| 2026-04-30 11:43 | -35.03489 | 148.92835 | 35466 ft | 457 kts | 52° |
| 2026-04-30 11:44 | -34.99565 | 148.99017 | 35479 ft | 457 kts | 51° |
| 2026-04-30 11:44 | -34.95685 | 149.05102 | 35475 ft | 458 kts | 52° |
| 2026-04-30 11:45 | -34.91771 | 149.11231 | 35468 ft | 458 kts | 52° |
| 2026-04-30 11:45 | -34.87857 | 149.17363 | 35391 ft | 459 kts | 52° |
| 2026-04-30 11:46 | -34.85901 | 149.20426 | 34869 ft | 458 kts | 52° |
| 2026-04-30 11:46 | -34.83944 | 149.23484 | 34307 ft | 456 kts | 52° |
| 2026-04-30 11:46 | -34.81998 | 149.26522 | 33796 ft | 452 kts | 52° |
| 2026-04-30 11:46 | -34.80074 | 149.29523 | 33286 ft | 448 kts | 52° |
| 2026-04-30 11:47 | -34.78160 | 149.32509 | 32785 ft | 444 kts | 52° |
| 2026-04-30 11:47 | -34.76263 | 149.35465 | 32294 ft | 441 kts | 52° |
| 2026-04-30 11:47 | -34.74406 | 149.38405 | 31813 ft | 436 kts | 56° |
| 2026-04-30 11:47 | -34.72868 | 149.41565 | 31335 ft | 432 kts | 62° |
| 2026-04-30 11:48 | -34.71476 | 149.44787 | 30848 ft | 429 kts | 62° |
| 2026-04-30 11:48 | -34.70094 | 149.47979 | 30347 ft | 425 kts | 62° |
| 2026-04-30 11:48 | -34.68720 | 149.51137 | 29865 ft | 420 kts | 62° |
| 2026-04-30 11:48 | -34.67362 | 149.54249 | 29407 ft | 414 kts | 62° |
| 2026-04-30 11:49 | -34.66019 | 149.57322 | 28959 ft | 409 kts | 62° |
| 2026-04-30 11:49 | -34.64690 | 149.60359 | 28529 ft | 404 kts | 62° |
| 2026-04-30 11:49 | -34.63380 | 149.63347 | 28107 ft | 399 kts | 62° |
| 2026-04-30 11:49 | -34.62083 | 149.66302 | 27686 ft | 394 kts | 62° |
| 2026-04-30 11:50 | -34.60801 | 149.69221 | 27280 ft | 390 kts | 62° |
| 2026-04-30 11:50 | -34.59533 | 149.72110 | 26878 ft | 385 kts | 61° |
| 2026-04-30 11:50 | -34.58292 | 149.74935 | 26483 ft | 381 kts | 61° |
| 2026-04-30 11:50 | -34.57055 | 149.77753 | 26085 ft | 377 kts | 61° |
| 2026-04-30 11:51 | -34.55828 | 149.80544 | 25692 ft | 373 kts | 61° |
| 2026-04-30 11:51 | -34.54611 | 149.83307 | 25309 ft | 369 kts | 61° |
| 2026-04-30 11:51 | -34.53403 | 149.86042 | 24906 ft | 366 kts | 61° |
| 2026-04-30 11:51 | -34.52208 | 149.88746 | 24511 ft | 362 kts | 61° |
| 2026-04-30 11:52 | -34.51024 | 149.91429 | 24108 ft | 359 kts | 61° |
| 2026-04-30 11:52 | -34.49851 | 149.94093 | 23660 ft | 356 kts | 61° |
| 2026-04-30 11:52 | -34.48692 | 149.96721 | 23250 ft | 352 kts | 61° |
| 2026-04-30 11:52 | -34.47542 | 149.99320 | 22849 ft | 347 kts | 61° |
| 2026-04-30 11:53 | -34.46405 | 150.01886 | 22463 ft | 344 kts | 61° |
| 2026-04-30 11:53 | -34.45281 | 150.04423 | 22052 ft | 340 kts | 61° |
| 2026-04-30 11:53 | -34.44168 | 150.06933 | 21655 ft | 336 kts | 61° |
| 2026-04-30 11:53 | -34.43063 | 150.09420 | 21255 ft | 333 kts | 61° |
| 2026-04-30 11:54 | -34.41969 | 150.11883 | 20858 ft | 331 kts | 61° |
| 2026-04-30 11:54 | -34.40880 | 150.14330 | 20471 ft | 329 kts | 61° |
| 2026-04-30 11:54 | -34.39798 | 150.16761 | 20078 ft | 327 kts | 61° |
| 2026-04-30 11:54 | -34.38725 | 150.19178 | 19687 ft | 325 kts | 61° |
| 2026-04-30 11:55 | -34.37656 | 150.21582 | 19298 ft | 323 kts | 60° |
| 2026-04-30 11:55 | -34.36589 | 150.23971 | 18913 ft | 322 kts | 60° |
| 2026-04-30 11:55 | -34.35527 | 150.26348 | 18495 ft | 320 kts | 60° |
| 2026-04-30 11:55 | -34.34471 | 150.28711 | 18103 ft | 318 kts | 60° |
| 2026-04-30 11:56 | -34.33425 | 150.31051 | 17718 ft | 315 kts | 61° |
| 2026-04-30 11:56 | -34.32384 | 150.33375 | 17339 ft | 313 kts | 61° |
| 2026-04-30 11:56 | -34.31352 | 150.35689 | 16962 ft | 311 kts | 61° |
| 2026-04-30 11:56 | -34.30341 | 150.37958 | 16590 ft | 310 kts | 61° |
| 2026-04-30 11:57 | -34.29322 | 150.40241 | 16216 ft | 308 kts | 61° |
| 2026-04-30 11:57 | -34.28306 | 150.42513 | 15842 ft | 306 kts | 61° |
| 2026-04-30 11:57 | -34.27295 | 150.44765 | 15475 ft | 304 kts | 60° |
| 2026-04-30 11:57 | -34.26290 | 150.47006 | 15103 ft | 302 kts | 61° |
| 2026-04-30 11:58 | -34.25293 | 150.49240 | 14741 ft | 301 kts | 61° |
| 2026-04-30 11:58 | -34.24301 | 150.51464 | 14375 ft | 299 kts | 61° |
| 2026-04-30 11:58 | -34.23316 | 150.53674 | 13984 ft | 297 kts | 61° |
| 2026-04-30 11:58 | -34.22338 | 150.55867 | 13614 ft | 295 kts | 61° |
| 2026-04-30 11:59 | -34.21365 | 150.58038 | 13253 ft | 293 kts | 61° |
| 2026-04-30 11:59 | -34.20396 | 150.60190 | 12906 ft | 291 kts | 61° |
| 2026-04-30 11:59 | -34.19431 | 150.62331 | 12552 ft | 289 kts | 60° |
| 2026-04-30 11:59 | -34.18474 | 150.64453 | 12191 ft | 287 kts | 61° |
| 2026-04-30 12:00 | -34.17525 | 150.66564 | 11847 ft | 285 kts | 61° |
| 2026-04-30 12:00 | -34.16586 | 150.68660 | 11504 ft | 283 kts | 61° |
| 2026-04-30 12:00 | -34.15651 | 150.70745 | 11049 ft | 285 kts | 61° |
| 2026-04-30 12:00 | -34.14687 | 150.72885 | 10433 ft | 293 kts | 61° |
| 2026-04-30 12:01 | -34.13716 | 150.75039 | 10068 ft | 289 kts | 61° |
| 2026-04-30 12:01 | -34.12765 | 150.77152 | 9737 ft | 284 kts | 61° |
| 2026-04-30 12:01 | -34.11836 | 150.79219 | 9586 ft | 279 kts | 61° |
| 2026-04-30 12:01 | -34.10907 | 150.81280 | 9280 ft | 278 kts | 60° |
| 2026-04-30 12:02 | -34.09983 | 150.83319 | 8939 ft | 276 kts | 61° |
| 2026-04-30 12:02 | -34.09067 | 150.85348 | 8697 ft | 275 kts | 61° |
| 2026-04-30 12:02 | -34.08154 | 150.87371 | 8434 ft | 274 kts | 61° |
| 2026-04-30 12:02 | -34.07244 | 150.89390 | 8169 ft | 273 kts | 61° |
| 2026-04-30 12:03 | -34.06341 | 150.91393 | 7924 ft | 271 kts | 61° |
| 2026-04-30 12:03 | -34.04545 | 150.95379 | 7417 ft | 269 kts | 62° |
| 2026-04-30 12:03 | -34.03694 | 150.97385 | 7158 ft | 268 kts | 70° |
| 2026-04-30 12:04 | -34.03367 | 150.99575 | 6913 ft | 267 kts | 91° |
| 2026-04-30 12:04 | -34.03738 | 151.01752 | 6648 ft | 267 kts | 112° |
| 2026-04-30 12:04 | -34.04753 | 151.03610 | 6381 ft | 268 kts | 132° |
| 2026-04-30 12:04 | -34.06050 | 151.05238 | 6100 ft | 269 kts | 132° |
| 2026-04-30 12:05 | -34.07410 | 151.06798 | 5850 ft | 270 kts | 141° |
| 2026-04-30 12:05 | -34.09049 | 151.07898 | 5591 ft | 271 kts | 157° |
| 2026-04-30 12:05 | -34.10868 | 151.08467 | 5344 ft | 268 kts | 166° |
| 2026-04-30 12:05 | -34.12683 | 151.08929 | 4952 ft | 268 kts | 166° |
| 2026-04-30 12:06 | -34.14546 | 151.09416 | 4327 ft | 275 kts | 166° |
| 2026-04-30 12:06 | -34.16309 | 151.10164 | 3889 ft | 264 kts | 143° |
| 2026-04-30 12:06 | -34.17510 | 151.11726 | 3583 ft | 249 kts | 113° |
| 2026-04-30 12:06 | -34.17885 | 151.13674 | 3318 ft | 233 kts | 88° |
| 2026-04-30 12:07 | -34.17826 | 151.15549 | 3240 ft | 216 kts | 84° |
| 2026-04-30 12:07 | -34.17719 | 151.17326 | 3134 ft | 210 kts | 83° |
| 2026-04-30 12:07 | -34.17487 | 151.19022 | 3043 ft | 206 kts | 64° |
| 2026-04-30 12:07 | -34.16558 | 151.20277 | 3029 ft | 203 kts | 28° |
| 2026-04-30 12:08 | -34.15188 | 151.20676 | 3001 ft | 206 kts | 7° |
| 2026-04-30 12:08 | -34.13769 | 151.20845 | 2994 ft | 205 kts | 5° |
| 2026-04-30 12:08 | -34.12337 | 151.20933 | 3009 ft | 206 kts | 4° |
| 2026-04-30 12:08 | -34.10894 | 151.20967 | 2992 ft | 208 kts | 359° |
| 2026-04-30 12:09 | -34.09503 | 151.20834 | 2903 ft | 192 kts | 357° |
| 2026-04-30 12:09 | -34.08220 | 151.20669 | 2733 ft | 180 kts | 354° |
| 2026-04-30 12:09 | -34.07001 | 151.20458 | 2471 ft | 172 kts | 354° |
| 2026-04-30 12:09 | -34.05870 | 151.20267 | 2200 ft | 158 kts | 356° |
| 2026-04-30 12:10 | -34.04812 | 151.20103 | 1882 ft | 150 kts | 354° |
| 2026-04-30 12:10 | -34.03798 | 151.19896 | 1567 ft | 146 kts | 353° |
| 2026-04-30 12:10 | -34.02809 | 151.19696 | 1298 ft | 143 kts | 353° |
| 2026-04-30 12:10 | -34.01838 | 151.19473 | 1077 ft | 142 kts | 351° |
| 2026-04-30 12:11 | -34.00875 | 151.19217 | 931 ft | 142 kts | 350° |
| 2026-04-30 12:11 | -33.99910 | 151.18956 | 793 ft | 142 kts | 349° |
| 2026-04-30 12:11 | -33.98940 | 151.18704 | 603 ft | 143 kts | 349° |
| 2026-04-30 12:11 | -33.97957 | 151.18462 | 388 ft | 145 kts | 347° |
| 2026-04-30 12:12 | -33.96978 | 151.18216 | 201 ft | 146 kts | 345° |
| 2026-04-30 12:12 | -33.95980 | 151.17950 | 35 ft | 146 kts | 345° |
| 2026-04-30 12:12 | -33.95115 | 151.17724 | 27 ft | 107 kts | 347° |
| 2026-04-30 12:12 | -33.94455 | 151.17553 | 30 ft | 85 kts | 348° |
| 2026-04-30 12:13 | -33.94061 | 151.17451 | 28 ft | 44 kts | 348° |
| 2026-04-30 12:13 | -33.93829 | 151.17392 | 26 ft | 26 kts | 348° |
| 2026-04-30 12:13 | -33.93704 | 151.17370 | 28 ft | 14 kts | 9° |
| 2026-04-30 12:13 | -33.93652 | 151.17450 | 27 ft | 8 kts | 77° |
| 2026-04-30 12:14 | -33.93643 | 151.17507 | 28 ft | 6 kts | 79° |
| 2026-04-30 12:14 | -33.93641 | 151.17559 | 29 ft | 6 kts | 95° |
| 2026-04-30 12:14 | -33.93631 | 151.17606 | 30 ft | 6 kts | 48° |
| 2026-04-30 12:14 | -33.93588 | 151.17613 | 30 ft | 8 kts | 349° |
| 2026-04-30 12:15 | -33.93535 | 151.17601 | 30 ft | 6 kts | 349° |
| 2026-04-30 12:15 | -33.93494 | 151.17592 | 30 ft | 6 kts | 349° |
| 2026-04-30 12:15 | -33.93452 | 151.17596 | 30 ft | 6 kts | 45° |
| 2026-04-30 12:15 | -33.93455 | 151.17648 | 30 ft | 6 kts | 100° |
| 2026-04-30 12:16 | -33.93460 | 151.17686 | 30 ft | 2 kts | 99° |
| 2026-04-30 12:16 | -33.93461 | 151.17691 | 30 ft | 1 kts | 99° |
| 2026-04-30 12:16 | -33.93462 | 151.17699 | 30 ft | 0 kts | 99° |